Terminal Aerodrome Forecast
Issued by NWS

Home | Current Version | Previous Version | Text Only | Print | Product List | Glossary On
Versions: 1 2 3 4 5 6 7 8 9 10 11 12 13 14 15 16 17
000
FTUS43 KDTX 201939 AAA
TAFMBS
TAF AMD
KMBS 201939Z 2020/2118 00000KT P6SM SCT018 SCT070 BKN200
      TEMPO 2020/2024 BKN018 OVC200
     FM210900 21004KT P6SM OVC028=

USA.gov is the U.S. government's official web portal to all federal, state and local government web resources and services.